createdAt,value
2018-12-31T00:00:17.688Z,7.40
2018-12-31T00:02:47.163Z,7.20
2018-12-31T00:05:18.117Z,7.33
2018-12-31T00:07:47.577Z,7.47
2018-12-31T00:10:17.050Z,7.57
2018-12-31T00:12:48.052Z,7.30
2018-12-31T00:15:18.077Z,7.50
2018-12-31T00:17:47.631Z,7.73
2018-12-31T00:20:18.249Z,7.27
2018-12-31T00:22:47.777Z,7.77
2018-12-31T00:25:17.246Z,7.23
2018-12-31T00:27:46.725Z,7.23
2018-12-31T00:30:16.269Z,7.30
2018-12-31T00:32:46.282Z,8.10
2018-12-31T00:35:15.788Z,7.57
2018-12-31T00:37:45.809Z,7.47
2018-12-31T00:40:15.267Z,7.57
2018-12-31T00:42:44.730Z,8.07
2018-12-31T00:45:14.201Z,7.93
2018-12-31T00:47:43.706Z,7.57
2018-12-31T00:50:13.172Z,8.20
2018-12-31T00:52:42.896Z,7.43
2018-12-31T00:55:12.622Z,7.20
2018-12-31T00:57:42.068Z,7.33
2018-12-31T01:00:11.621Z,7.47
2018-12-31T01:02:41.100Z,6.87
2018-12-31T01:05:11.102Z,7.00
2018-12-31T01:07:41.014Z,8.27
2018-12-31T01:10:10.917Z,7.40
2018-12-31T01:12:41.359Z,8.10
2018-12-31T01:15:11.675Z,7.27
2018-12-31T01:17:43.249Z,7.67
2018-12-31T01:20:12.771Z,7.40
2018-12-31T01:22:42.235Z,7.77
2018-12-31T01:25:11.715Z,8.10
2018-12-31T01:27:41.178Z,8.10
2018-12-31T01:30:12.639Z,8.57
2018-12-31T01:32:42.288Z,8.30
2018-12-31T01:35:11.806Z,7.27
2018-12-31T01:37:41.266Z,8.43
2018-12-31T01:40:10.760Z,8.33
2018-12-31T01:42:40.220Z,8.40
2018-12-31T01:45:09.685Z,8.00
2018-12-31T01:47:39.139Z,7.67
2018-12-31T01:50:09.369Z,8.23
2018-12-31T01:52:41.114Z,7.60
2018-12-31T01:55:10.542Z,8.10
2018-12-31T01:57:40.020Z,8.10
2018-12-31T02:00:09.843Z,7.57
2018-12-31T02:02:39.315Z,7.70
2018-12-31T02:05:08.782Z,7.00
2018-12-31T02:07:38.234Z,7.50
2018-12-31T02:10:08.364Z,7.70
2018-12-31T02:12:37.809Z,7.07
2018-12-31T02:15:07.894Z,7.13
2018-12-31T02:17:37.316Z,7.43
2018-12-31T02:20:06.922Z,7.33
2018-12-31T02:22:36.385Z,7.27
2018-12-31T02:25:06.738Z,7.33
2018-12-31T02:27:36.556Z,6.53
2018-12-31T02:30:06.780Z,7.50
2018-12-31T02:32:36.193Z,7.23
2018-12-31T02:35:05.993Z,6.63
2018-12-31T02:37:35.448Z,6.53
2018-12-31T02:40:05.837Z,6.70
2018-12-31T02:42:35.369Z,6.50
2018-12-31T02:45:04.981Z,6.43
2018-12-31T02:47:34.726Z,6.53
2018-12-31T02:50:05.430Z,6.73
2018-12-31T02:52:34.939Z,6.43
2018-12-31T02:55:04.484Z,6.33
2018-12-31T02:57:34.090Z,6.27
2018-12-31T03:00:04.838Z,6.20
2018-12-31T03:02:34.690Z,6.90
2018-12-31T03:05:05.511Z,6.40
2018-12-31T03:07:35.302Z,6.37
2018-12-31T03:10:05.844Z,6.47
2018-12-31T03:12:35.774Z,6.03
2018-12-31T03:15:06.147Z,6.37
2018-12-31T03:17:35.604Z,6.53
2018-12-31T03:20:05.350Z,6.13
2018-12-31T03:22:34.825Z,6.40
2018-12-31T03:25:04.480Z,6.87
2018-12-31T03:27:33.927Z,6.30
2018-12-31T03:30:03.401Z,6.67
2018-12-31T03:32:32.885Z,5.90
2018-12-31T03:35:02.358Z,5.87
2018-12-31T03:37:31.821Z,6.40
2018-12-31T03:40:01.336Z,6.70
2018-12-31T03:42:30.843Z,6.60
2018-12-31T03:45:00.857Z,6.77
2018-12-31T03:47:30.336Z,6.20
2018-12-31T03:49:59.807Z,6.27
2018-12-31T03:52:29.853Z,6.50
2018-12-31T03:54:59.349Z,6.00
2018-12-31T03:57:28.864Z,6.60
2018-12-31T03:59:58.344Z,6.30
2018-12-31T04:02:27.798Z,6.50
2018-12-31T04:04:57.269Z,7.23
2018-12-31T04:07:26.738Z,6.70
2018-12-31T04:09:56.633Z,6.10
2018-12-31T04:12:26.099Z,6.40
2018-12-31T04:14:55.820Z,6.17
2018-12-31T04:17:25.679Z,6.07
2018-12-31T04:19:55.169Z,6.60
2018-12-31T04:22:24.764Z,6.27
2018-12-31T04:24:54.280Z,6.23
2018-12-31T04:27:23.772Z,6.10
2018-12-31T04:29:53.380Z,5.77
2018-12-31T04:32:22.811Z,5.77
2018-12-31T04:34:52.284Z,5.30
2018-12-31T04:37:21.789Z,5.50
2018-12-31T04:40:10.565Z,5.50
2018-12-31T04:42:59.327Z,4.43
2018-12-31T04:45:48.100Z,4.87
2018-12-31T04:48:17.531Z,4.17
2018-12-31T04:50:46.963Z,4.27
2018-12-31T04:53:16.383Z,4.30
2018-12-31T04:55:45.832Z,4.50
2018-12-31T04:58:22.739Z,3.97
2018-12-31T05:00:47.957Z,4.67
2018-12-31T05:03:17.402Z,3.97
2018-12-31T05:05:46.845Z,3.80
2018-12-31T05:08:16.505Z,3.40
2018-12-31T05:10:45.971Z,4.00
2018-12-31T05:13:15.373Z,3.73
2018-12-31T05:15:44.819Z,3.30
2018-12-31T05:18:14.241Z,3.50
2018-12-31T05:20:43.679Z,3.10
2018-12-31T05:23:13.110Z,3.10
2018-12-31T05:25:42.535Z,3.13
2018-12-31T05:28:11.956Z,3.07
2018-12-31T05:30:41.405Z,3.07
2018-12-31T05:33:10.813Z,3.20
2018-12-31T05:35:40.327Z,3.20
2018-12-31T05:38:09.774Z,2.80
2018-12-31T05:40:39.210Z,2.80
2018-12-31T05:43:08.628Z,2.90
2018-12-31T05:45:38.070Z,2.90
2018-12-31T05:48:07.491Z,2.93
2018-12-31T05:50:36.945Z,2.90
2018-12-31T05:53:06.354Z,2.70
2018-12-31T05:55:35.776Z,2.90
2018-12-31T05:58:05.202Z,2.60
2018-12-31T06:00:35.998Z,2.27
2018-12-31T06:03:05.440Z,2.60
2018-12-31T06:05:34.864Z,2.30
2018-12-31T06:08:04.302Z,2.50
2018-12-31T06:10:33.723Z,2.47
2018-12-31T06:13:03.160Z,1.80
2018-12-31T06:15:32.595Z,2.30
2018-12-31T06:18:02.029Z,2.23
2018-12-31T06:20:31.454Z,2.20
2018-12-31T06:23:00.879Z,1.90
2018-12-31T06:25:30.308Z,2.17
2018-12-31T06:27:59.744Z,2.03
2018-12-31T06:30:29.172Z,2.10
2018-12-31T06:32:58.596Z,2.03
2018-12-31T06:35:28.024Z,2.10
2018-12-31T06:37:57.445Z,1.73
2018-12-31T06:40:28.577Z,1.80
2018-12-31T06:42:58.182Z,1.90
2018-12-31T06:45:27.616Z,1.83
2018-12-31T06:47:57.039Z,1.50
2018-12-31T06:50:26.455Z,1.90
2018-12-31T06:52:57.573Z,1.80
2018-12-31T06:55:27.095Z,2.00
2018-12-31T06:57:56.528Z,1.83
2018-12-31T07:00:25.955Z,1.87
2018-12-31T07:02:55.382Z,1.90
2018-12-31T07:05:24.823Z,1.90
2018-12-31T07:07:54.242Z,1.50
2018-12-31T07:10:23.674Z,1.60
2018-12-31T07:12:53.101Z,1.60
2018-12-31T07:15:22.528Z,1.70
2018-12-31T07:17:51.953Z,1.80
2018-12-31T07:20:21.399Z,1.70
2018-12-31T07:22:50.839Z,1.87
2018-12-31T07:25:20.279Z,1.83
2018-12-31T07:27:49.707Z,1.60
2018-12-31T07:30:19.133Z,1.67
2018-12-31T07:32:48.578Z,1.50
2018-12-31T07:35:17.982Z,1.60
2018-12-31T07:37:47.406Z,1.80
2018-12-31T07:40:16.829Z,1.40
2018-12-31T07:42:46.263Z,1.77
2018-12-31T07:45:15.687Z,1.50
2018-12-31T07:47:45.141Z,1.70
2018-12-31T07:50:14.665Z,1.50
2018-12-31T07:52:44.111Z,1.67
2018-12-31T07:55:13.530Z,1.60
2018-12-31T07:57:43.051Z,1.70
2018-12-31T08:00:12.497Z,1.60
2018-12-31T08:02:41.927Z,1.60
2018-12-31T08:05:11.342Z,1.53
2018-12-31T08:07:40.797Z,1.80
2018-12-31T08:10:10.215Z,1.73
2018-12-31T08:12:39.680Z,1.70
2018-12-31T08:15:09.112Z,1.67
2018-12-31T08:17:38.547Z,1.40
2018-12-31T08:20:08.025Z,1.63
2018-12-31T08:22:37.458Z,1.53
2018-12-31T08:25:08.252Z,1.40
2018-12-31T08:27:39.335Z,1.57
2018-12-31T08:30:09.225Z,1.93
2018-12-31T08:32:38.659Z,1.80
2018-12-31T08:35:08.100Z,1.57
2018-12-31T08:37:39.188Z,1.63
2018-12-31T08:40:08.679Z,1.83
2018-12-31T08:42:38.113Z,1.70
2018-12-31T08:45:07.714Z,1.83
2018-12-31T08:47:37.286Z,2.20
2018-12-31T08:50:07.745Z,1.50
2018-12-31T08:52:37.187Z,1.93
2018-12-31T08:55:06.674Z,1.80
2018-12-31T08:57:36.118Z,1.50
2018-12-31T09:00:08.847Z,1.70
2018-12-31T09:02:38.285Z,2.10
2018-12-31T09:05:07.842Z,2.00
2018-12-31T09:07:37.299Z,2.00
2018-12-31T09:10:06.992Z,1.60
2018-12-31T09:12:36.438Z,1.60
2018-12-31T09:15:06.396Z,1.80
2018-12-31T09:17:35.835Z,1.60
2018-12-31T09:20:07.469Z,2.00
2018-12-31T09:22:36.895Z,2.20
2018-12-31T09:25:06.755Z,1.90
2018-12-31T09:27:36.207Z,1.77
2018-12-31T09:30:06.413Z,2.10
2018-12-31T09:32:35.914Z,2.07
2018-12-31T09:35:05.681Z,1.93
2018-12-31T09:37:35.100Z,2.37
2018-12-31T09:40:05.273Z,3.00
2018-12-31T09:42:34.702Z,2.00
2018-12-31T09:45:04.565Z,2.10
2018-12-31T09:47:34.015Z,1.80
2018-12-31T09:50:03.612Z,1.90
2018-12-31T09:52:33.043Z,2.30
2018-12-31T09:55:02.482Z,8.20
2018-12-31T09:57:31.913Z,1.80
2018-12-31T10:00:01.342Z,1.60
2018-12-31T10:02:30.762Z,1.70
2018-12-31T10:05:00.251Z,2.40
2018-12-31T10:07:29.653Z,1.70
2018-12-31T10:09:59.083Z,1.73
2018-12-31T10:12:28.512Z,1.70
2018-12-31T10:14:57.956Z,1.80
2018-12-31T10:17:27.365Z,1.97
2018-12-31T10:19:56.799Z,1.80
2018-12-31T10:22:26.223Z,2.57
2018-12-31T10:24:55.679Z,2.20
2018-12-31T10:27:25.118Z,3.10
2018-12-31T10:29:54.591Z,2.63
2018-12-31T10:32:23.990Z,2.20
2018-12-31T10:34:53.431Z,2.30
2018-12-31T10:37:22.865Z,1.90
2018-12-31T10:39:52.312Z,1.90
2018-12-31T10:42:21.753Z,1.90
2018-12-31T10:44:51.178Z,2.27
2018-12-31T10:47:20.605Z,1.90
2018-12-31T10:50:09.389Z,1.70
2018-12-31T10:52:58.146Z,2.27
2018-12-31T10:55:46.918Z,1.77
2018-12-31T10:58:35.683Z,2.03
2018-12-31T11:01:24.465Z,2.20
2018-12-31T11:04:32.276Z,1.67
2018-12-31T11:07:21.057Z,1.60
2018-12-31T11:10:29.153Z,13.87
2018-12-31T11:13:17.924Z,1.80
2018-12-31T11:15:59.215Z,1.43
2018-12-31T11:18:47.976Z,1.40
2018-12-31T11:21:36.762Z,1.80
2018-12-31T11:24:25.567Z,1.33
2018-12-31T11:27:14.333Z,1.40
2018-12-31T11:30:03.105Z,1.50
2018-12-31T11:32:51.862Z,1.70
2018-12-31T11:35:21.303Z,1.40
2018-12-31T11:38:10.087Z,1.33
2018-12-31T11:40:58.865Z,1.50
2018-12-31T11:43:47.632Z,1.60
2018-12-31T11:46:36.400Z,2.20
2018-12-31T11:49:25.169Z,1.80
2018-12-31T11:52:13.948Z,1.40
2018-12-31T11:55:03.599Z,1.60
2018-12-31T11:57:53.231Z,1.90
2018-12-31T12:00:42.028Z,2.07
2018-12-31T12:03:30.794Z,1.70
2018-12-31T12:06:19.565Z,1.80
2018-12-31T12:08:49.005Z,1.70
2018-12-31T12:11:37.837Z,1.40
2018-12-31T12:14:07.776Z,1.70
2018-12-31T12:16:37.294Z,1.40
2018-12-31T12:19:07.120Z,1.70
2018-12-31T12:21:36.598Z,6.07
2018-12-31T12:24:06.049Z,8.90
2018-12-31T12:26:35.576Z,2.13
2018-12-31T12:29:05.054Z,1.70
2018-12-31T12:31:34.929Z,2.17
2018-12-31T12:34:04.449Z,2.10
2018-12-31T12:36:33.950Z,2.10
2018-12-31T12:39:04.697Z,1.90
2018-12-31T12:41:34.211Z,2.57
2018-12-31T12:44:03.704Z,2.13
2018-12-31T12:46:33.700Z,2.93
2018-12-31T12:49:03.148Z,1.87
2018-12-31T12:51:32.661Z,2.03
2018-12-31T12:54:02.103Z,2.07
2018-12-31T12:56:31.555Z,2.27
2018-12-31T12:59:01.318Z,1.90
2018-12-31T13:01:30.767Z,2.10
2018-12-31T13:04:00.232Z,2.10
2018-12-31T13:06:30.335Z,1.97
2018-12-31T13:08:59.776Z,2.10
2018-12-31T13:11:29.279Z,2.40
2018-12-31T13:13:58.748Z,8.97
2018-12-31T13:16:28.294Z,3.27
2018-12-31T13:18:58.602Z,2.70
2018-12-31T13:21:28.134Z,2.20
2018-12-31T13:23:57.595Z,1.97
2018-12-31T13:26:27.179Z,2.27
2018-12-31T13:28:56.745Z,2.20
2018-12-31T13:31:26.246Z,2.20
2018-12-31T13:33:55.707Z,3.60
2018-12-31T13:36:25.322Z,2.37
2018-12-31T13:38:54.738Z,2.63
2018-12-31T13:41:24.257Z,2.47
2018-12-31T13:43:53.698Z,3.20
2018-12-31T13:46:24.519Z,2.77
2018-12-31T13:48:54.031Z,2.50
2018-12-31T13:51:24.014Z,2.50
2018-12-31T13:53:53.885Z,2.80
2018-12-31T13:56:23.404Z,2.47
2018-12-31T13:58:52.960Z,2.50
2018-12-31T14:01:23.365Z,2.73
2018-12-31T14:03:52.822Z,2.67
2018-12-31T14:06:22.329Z,2.97
2018-12-31T14:08:52.807Z,3.13
2018-12-31T14:11:22.381Z,2.60
2018-12-31T14:13:51.949Z,3.23
2018-12-31T14:16:21.935Z,2.60
2018-12-31T14:18:51.476Z,2.80
2018-12-31T14:21:21.012Z,3.10
2018-12-31T14:23:50.868Z,3.03
2018-12-31T14:26:20.487Z,2.53
2018-12-31T14:28:50.373Z,3.53
2018-12-31T14:31:19.817Z,3.30
2018-12-31T14:33:49.277Z,4.63
2018-12-31T14:36:18.727Z,5.10
2018-12-31T14:38:48.198Z,3.87
2018-12-31T14:41:17.833Z,3.10
2018-12-31T14:43:47.314Z,3.13
2018-12-31T14:46:17.980Z,2.83
2018-12-31T14:48:47.450Z,3.90
2018-12-31T14:51:21.800Z,10.40
2018-12-31T14:53:51.231Z,10.40
2018-12-31T14:56:21.302Z,12.73
2018-12-31T14:58:51.423Z,4.17
2018-12-31T15:01:21.351Z,3.03
2018-12-31T15:03:51.560Z,2.97
2018-12-31T15:06:21.490Z,3.40
2018-12-31T15:08:51.099Z,3.10
2018-12-31T15:11:20.598Z,3.77
2018-12-31T15:13:52.536Z,3.37
2018-12-31T15:16:22.024Z,3.43
2018-12-31T15:18:51.553Z,3.53
2018-12-31T15:21:21.015Z,3.60
2018-12-31T15:23:50.536Z,3.70
2018-12-31T15:26:20.057Z,3.93
2018-12-31T15:28:51.246Z,3.90
2018-12-31T15:31:23.100Z,3.90
2018-12-31T15:33:52.589Z,4.07
2018-12-31T15:36:22.142Z,4.30
2018-12-31T15:38:52.106Z,3.83
2018-12-31T15:41:21.531Z,3.73
2018-12-31T15:43:51.008Z,3.73
2018-12-31T15:46:20.718Z,4.23
2018-12-31T15:48:50.365Z,4.00
2018-12-31T15:51:19.811Z,3.80
2018-12-31T15:53:49.276Z,4.30
2018-12-31T15:56:19.154Z,4.60
2018-12-31T15:58:48.635Z,4.20
2018-12-31T16:01:18.097Z,4.43
2018-12-31T16:03:47.556Z,4.60
2018-12-31T16:06:18.230Z,4.90
2018-12-31T16:08:49.975Z,5.20
2018-12-31T16:11:19.464Z,5.40
2018-12-31T16:13:49.010Z,5.23
2018-12-31T16:16:18.646Z,5.10
2018-12-31T16:18:48.096Z,5.53
2018-12-31T16:21:17.556Z,5.10
2018-12-31T16:23:47.064Z,5.73
2018-12-31T16:26:16.881Z,6.63
2018-12-31T16:28:46.377Z,5.20
2018-12-31T16:31:15.851Z,4.90
2018-12-31T16:33:45.416Z,4.90
2018-12-31T16:36:15.005Z,5.30
2018-12-31T16:38:44.727Z,6.10
2018-12-31T16:41:14.695Z,6.27
2018-12-31T16:43:45.480Z,6.40
2018-12-31T16:46:15.048Z,6.00
2018-12-31T16:48:44.573Z,5.73
2018-12-31T16:51:14.113Z,6.37
2018-12-31T16:53:43.637Z,8.57
2018-12-31T16:56:13.096Z,6.40
2018-12-31T16:58:42.702Z,7.43
2018-12-31T17:01:12.229Z,7.00
2018-12-31T17:03:41.801Z,6.83
2018-12-31T17:06:11.448Z,9.50
2018-12-31T17:08:40.957Z,7.43
2018-12-31T17:11:12.152Z,7.47
2018-12-31T17:13:44.998Z,6.83
2018-12-31T17:16:14.596Z,6.90
2018-12-31T17:18:44.184Z,7.70
2018-12-31T17:21:13.852Z,7.10
2018-12-31T17:23:43.490Z,7.80
2018-12-31T17:26:13.595Z,8.57
2018-12-31T17:28:43.078Z,9.17
2018-12-31T17:31:12.529Z,11.07
2018-12-31T17:33:42.183Z,10.00
2018-12-31T17:36:11.673Z,9.63
2018-12-31T17:38:41.633Z,12.80
2018-12-31T17:41:11.078Z,9.97
2018-12-31T17:43:40.636Z,10.40
2018-12-31T17:46:10.555Z,9.90
2018-12-31T17:48:40.569Z,10.67
2018-12-31T17:51:11.003Z,11.53
2018-12-31T17:53:41.314Z,16.53
2018-12-31T17:56:12.761Z,13.03
2018-12-31T17:58:42.345Z,13.53
2018-12-31T18:01:11.862Z,13.20
2018-12-31T18:03:41.437Z,12.53
2018-12-31T18:06:10.914Z,13.07
2018-12-31T18:08:40.346Z,13.33
2018-12-31T18:11:09.828Z,14.60
2018-12-31T18:13:39.280Z,12.80
2018-12-31T18:16:08.747Z,13.23
2018-12-31T18:18:38.218Z,14.70
2018-12-31T18:21:07.694Z,12.60
2018-12-31T18:23:37.285Z,13.00
2018-12-31T18:26:06.865Z,12.57
2018-12-31T18:28:36.758Z,14.73
2018-12-31T18:31:06.242Z,14.53
2018-12-31T18:33:35.691Z,12.80
2018-12-31T18:36:05.219Z,14.17
2018-12-31T18:38:35.131Z,14.30
2018-12-31T18:41:04.779Z,13.13
2018-12-31T18:43:34.242Z,13.37
2018-12-31T18:46:03.716Z,13.70
2018-12-31T18:48:33.252Z,14.30
2018-12-31T18:51:03.108Z,13.43
2018-12-31T18:53:32.553Z,12.73
2018-12-31T18:56:02.097Z,14.47
2018-12-31T18:58:31.872Z,14.20
2018-12-31T19:01:02.063Z,25.80
2018-12-31T19:03:31.859Z,17.50
2018-12-31T19:06:01.348Z,14.07
2018-12-31T19:08:30.802Z,13.23
2018-12-31T19:11:00.266Z,13.13
2018-12-31T19:13:29.713Z,13.80
2018-12-31T19:15:59.483Z,14.10
2018-12-31T19:18:28.965Z,14.90
2018-12-31T19:20:58.413Z,14.83
2018-12-31T19:23:27.878Z,14.20
2018-12-31T19:25:57.359Z,13.03
2018-12-31T19:28:26.986Z,14.10
2018-12-31T19:30:56.466Z,13.87
2018-12-31T19:33:26.475Z,14.77
2018-12-31T19:35:56.270Z,13.80
2018-12-31T19:38:26.290Z,14.40
2018-12-31T19:40:56.318Z,15.07
2018-12-31T19:43:26.221Z,39.33
2018-12-31T19:45:56.234Z,22.87
2018-12-31T19:48:26.162Z,20.17
2018-12-31T19:50:55.698Z,18.20
2018-12-31T19:53:25.229Z,16.80
2018-12-31T19:55:56.849Z,16.90
2018-12-31T19:58:26.912Z,16.83
2018-12-31T20:00:56.514Z,17.90
2018-12-31T20:03:26.044Z,17.37
2018-12-31T20:05:55.519Z,19.40
2018-12-31T20:08:25.000Z,19.10
2018-12-31T20:10:54.507Z,17.20
2018-12-31T20:13:23.959Z,18.27
2018-12-31T20:15:53.799Z,19.80
2018-12-31T20:18:23.264Z,21.77
2018-12-31T20:20:53.514Z,18.57
2018-12-31T20:23:24.554Z,17.27
2018-12-31T20:25:54.176Z,18.43
2018-12-31T20:28:24.031Z,18.57
2018-12-31T20:30:53.557Z,19.97
2018-12-31T20:33:23.024Z,19.13
2018-12-31T20:35:52.643Z,21.03
2018-12-31T20:38:22.122Z,20.17
2018-12-31T20:40:51.615Z,20.90
2018-12-31T20:43:21.079Z,21.20
2018-12-31T20:45:50.683Z,22.53
2018-12-31T20:48:20.161Z,21.63
2018-12-31T20:50:49.669Z,24.37
2018-12-31T20:53:19.148Z,23.83
2018-12-31T20:55:55.957Z,24.60
2018-12-31T20:58:25.490Z,24.37
2018-12-31T21:00:54.940Z,22.37
2018-12-31T21:03:24.497Z,20.70
2018-12-31T21:05:55.952Z,18.47
2018-12-31T21:08:25.460Z,44.33
2018-12-31T21:10:54.917Z,29.30
2018-12-31T21:13:24.422Z,27.77
2018-12-31T21:15:55.926Z,27.33
2018-12-31T21:18:25.767Z,30.63
2018-12-31T21:20:55.212Z,24.77
2018-12-31T21:23:24.709Z,26.07
2018-12-31T21:25:54.593Z,28.70
2018-12-31T21:28:24.643Z,26.97
2018-12-31T21:30:54.839Z,23.53
2018-12-31T21:33:24.867Z,28.90
2018-12-31T21:35:54.767Z,23.37
2018-12-31T21:38:24.321Z,24.70
2018-12-31T21:40:53.904Z,24.93
2018-12-31T21:43:23.826Z,26.17
2018-12-31T21:45:53.336Z,25.77
2018-12-31T21:48:22.761Z,23.93
2018-12-31T21:50:52.244Z,23.43
2018-12-31T21:53:22.314Z,24.37
2018-12-31T21:55:51.906Z,23.13
2018-12-31T21:58:21.381Z,22.73
2018-12-31T22:00:50.836Z,21.87
2018-12-31T22:03:20.318Z,24.00
2018-12-31T22:05:49.846Z,23.83
2018-12-31T22:08:20.188Z,25.40
2018-12-31T22:10:50.103Z,26.67
2018-12-31T22:13:19.607Z,32.93
2018-12-31T22:15:49.069Z,31.37
2018-12-31T22:18:18.759Z,27.33
2018-12-31T22:20:48.675Z,25.73
2018-12-31T22:23:18.164Z,25.87
2018-12-31T22:25:47.694Z,26.60
2018-12-31T22:28:17.183Z,26.60
2018-12-31T22:30:46.646Z,27.57
2018-12-31T22:33:16.422Z,27.53
2018-12-31T22:35:45.895Z,26.70
2018-12-31T22:38:15.382Z,27.53
2018-12-31T22:40:44.862Z,26.97
2018-12-31T22:43:14.906Z,25.87
2018-12-31T22:45:44.581Z,29.70
2018-12-31T22:48:14.106Z,31.47
2018-12-31T22:50:45.563Z,27.20
2018-12-31T22:53:15.058Z,28.70
2018-12-31T22:55:50.420Z,31.50
2018-12-31T22:58:19.904Z,37.33
2018-12-31T23:00:51.784Z,39.10
2018-12-31T23:03:21.306Z,180.17
2018-12-31T23:05:50.861Z,304.27
2018-12-31T23:08:20.372Z,261.77
2018-12-31T23:10:49.869Z,491.27
2018-12-31T23:13:19.368Z,493.40
2018-12-31T23:15:49.265Z,553.27
2018-12-31T23:18:19.261Z,561.40
2018-12-31T23:20:49.185Z,543.63
2018-12-31T23:23:18.681Z,514.73
2018-12-31T23:25:48.150Z,491.43
2018-12-31T23:28:19.701Z,461.80
2018-12-31T23:30:50.110Z,414.20
2018-12-31T23:33:19.701Z,386.53
2018-12-31T23:35:49.181Z,402.40
2018-12-31T23:38:18.650Z,371.13
2018-12-31T23:40:48.097Z,355.90
2018-12-31T23:43:17.626Z,319.70
2018-12-31T23:45:47.115Z,344.03
2018-12-31T23:48:16.738Z,335.73
2018-12-31T23:50:46.212Z,286.50
2018-12-31T23:53:17.252Z,303.23
2018-12-31T23:55:47.129Z,254.97
2018-12-31T23:58:16.647Z,283.77
